createdAt,value
2022-11-13T00:01:30.794Z,102557.44
2022-11-13T00:04:00.660Z,102555.84
2022-11-13T00:06:30.355Z,102558.13
2022-11-13T00:09:00.293Z,102555.09
2022-11-13T00:11:30.169Z,102551.84
2022-11-13T00:13:59.958Z,102552.19
2022-11-13T00:16:30.130Z,102559.38
2022-11-13T00:18:59.530Z,102561.06
2022-11-13T00:21:29.790Z,102558.88
2022-11-13T00:23:59.067Z,102555.84
2022-11-13T00:26:31.741Z,102560.88
2022-11-13T00:29:03.802Z,102562.53
2022-11-13T00:31:32.249Z,102557.38
2022-11-13T00:34:19.617Z,102553.28
2022-11-13T00:36:50.275Z,102550.53
2022-11-13T00:39:20.166Z,102555.03
2022-11-13T00:41:50.026Z,102550.63
2022-11-13T00:44:20.003Z,102546.75
2022-11-13T00:46:49.702Z,102556.44
2022-11-13T00:49:19.541Z,102554.50
2022-11-13T00:51:49.486Z,102545.75
2022-11-13T00:54:19.517Z,102540.00
2022-11-13T00:56:49.382Z,102556.28
2022-11-13T00:59:19.149Z,102540.31
2022-11-13T01:01:49.174Z,102533.97
2022-11-13T01:04:19.001Z,102529.03
2022-11-13T01:06:48.821Z,102526.88
2022-11-13T01:09:18.917Z,102518.59
2022-11-13T01:11:48.833Z,102518.06
2022-11-13T01:14:18.770Z,102521.69
2022-11-13T01:16:48.592Z,102515.31
2022-11-13T01:19:18.675Z,102519.75
2022-11-13T01:21:48.310Z,102517.38
2022-11-13T01:24:18.201Z,102517.38
2022-11-13T01:26:48.418Z,102523.72
2022-11-13T01:29:18.359Z,102511.09
2022-11-13T01:31:48.091Z,102516.34
2022-11-13T01:34:18.190Z,102512.25
2022-11-13T01:36:48.283Z,102509.50
2022-11-13T01:39:18.141Z,102514.72
2022-11-13T01:41:48.287Z,102516.41
2022-11-13T01:44:20.225Z,102519.75
2022-11-13T01:46:57.155Z,102511.22
2022-11-13T01:49:41.319Z,102507.13
2022-11-13T01:52:26.993Z,102504.13
2022-11-13T01:55:11.605Z,102500.25
2022-11-13T01:57:42.674Z,102499.47
2022-11-13T02:00:13.634Z,102494.53
2022-11-13T02:02:44.307Z,102490.44
2022-11-13T02:05:14.427Z,102490.19
2022-11-13T02:07:44.973Z,102488.00
2022-11-13T02:10:15.272Z,102482.81
2022-11-13T02:12:52.344Z,102482.03
2022-11-13T02:15:31.695Z,102480.44
2022-11-13T02:18:04.403Z,102478.00
2022-11-13T02:20:55.023Z,102477.72
2022-11-13T02:23:39.698Z,102481.34
2022-11-13T02:26:12.621Z,102471.38
2022-11-13T02:28:42.807Z,102470.00
2022-11-13T02:31:14.497Z,102470.34
2022-11-13T02:33:42.639Z,102469.28
2022-11-13T02:36:13.865Z,102466.22
2022-11-13T02:38:45.618Z,102456.59
2022-11-13T02:41:15.671Z,102459.66
2022-11-13T02:43:46.123Z,102457.47
2022-11-13T02:46:16.316Z,102453.91
2022-11-13T02:48:46.656Z,102455.56
2022-11-13T02:51:16.709Z,102449.56
2022-11-13T02:53:46.771Z,102443.78
2022-11-13T02:56:17.159Z,102447.38
2022-11-13T02:58:47.191Z,102443.84
2022-11-13T03:01:15.689Z,102443.59
2022-11-13T03:03:59.272Z,102434.47
2022-11-13T03:06:28.199Z,102428.41
2022-11-13T03:08:57.917Z,102432.84
2022-11-13T03:11:26.393Z,102427.91
2022-11-13T03:13:55.288Z,102427.66
2022-11-13T03:16:23.239Z,102432.97
2022-11-13T03:18:51.602Z,102425.81
2022-11-13T03:21:19.980Z,102429.16
2022-11-13T03:23:48.592Z,102434.16
2022-11-13T03:26:18.088Z,102429.75
2022-11-13T03:28:46.293Z,102427.31
2022-11-13T03:31:13.919Z,102422.03
2022-11-13T03:33:42.345Z,102424.53
2022-11-13T03:36:10.535Z,102422.34
2022-11-13T03:38:38.893Z,102423.75
2022-11-13T03:41:07.326Z,102416.53
2022-11-13T03:43:35.725Z,102423.50
2022-11-13T03:46:04.212Z,102424.91
2022-11-13T03:48:33.432Z,102419.69
2022-11-13T03:51:02.330Z,102420.25
2022-11-13T03:53:29.467Z,102422.78
2022-11-13T03:55:58.453Z,102420.84
2022-11-13T03:58:26.918Z,102416.97
2022-11-13T04:00:56.851Z,102418.91
2022-11-13T04:03:26.038Z,102413.09
2022-11-13T04:05:54.635Z,102419.72
2022-11-13T04:08:22.909Z,102419.16
2022-11-13T04:10:51.340Z,102427.19
2022-11-13T04:13:19.698Z,102431.66
2022-11-13T04:15:51.293Z,102427.84
2022-11-13T04:18:19.528Z,102428.16
2022-11-13T04:20:48.002Z,102426.22
2022-11-13T04:23:18.012Z,102417.59
2022-11-13T04:25:49.358Z,102425.06
2022-11-13T04:28:19.361Z,102419.56
2022-11-13T04:30:55.380Z,102415.16
2022-11-13T04:33:25.413Z,102410.44
2022-11-13T04:35:55.435Z,102419.53
2022-11-13T04:38:25.604Z,102417.84
2022-11-13T04:41:15.875Z,102406.81
2022-11-13T04:43:45.896Z,102402.97
2022-11-13T04:46:15.902Z,102412.38
2022-11-13T04:48:45.910Z,102412.34
2022-11-13T04:51:16.071Z,102408.75
2022-11-13T04:53:46.087Z,102412.63
2022-11-13T04:56:16.128Z,102411.25
2022-11-13T04:58:46.172Z,102406.81
2022-11-13T05:01:16.920Z,102407.16
2022-11-13T05:03:46.961Z,102399.75
2022-11-13T05:06:17.069Z,102400.34
2022-11-13T05:08:47.636Z,102401.97
2022-11-13T05:11:17.657Z,102406.06
2022-11-13T05:13:47.847Z,102400.53
2022-11-13T05:16:17.918Z,102406.88
2022-11-13T05:18:48.343Z,102408.25
2022-11-13T05:21:18.863Z,102400.50
2022-11-13T05:23:48.938Z,102400.50
2022-11-13T05:26:19.823Z,102402.16
2022-11-13T05:28:49.832Z,102399.97
2022-11-13T05:31:19.841Z,102392.31
2022-11-13T05:33:49.945Z,102392.28
2022-11-13T05:36:21.836Z,102389.53
2022-11-13T05:38:52.255Z,102385.06
2022-11-13T05:41:23.975Z,102385.38
2022-11-13T05:43:59.161Z,102386.72
2022-11-13T05:46:30.943Z,102383.69
2022-11-13T05:49:02.515Z,102382.13
2022-11-13T05:51:35.454Z,102375.72
2022-11-13T05:54:04.023Z,102379.03
2022-11-13T05:56:36.649Z,102377.38
2022-11-13T05:59:07.506Z,102376.53
2022-11-13T06:01:40.924Z,102388.41
2022-11-13T06:04:11.177Z,102380.03
2022-11-13T06:06:42.498Z,102365.94
2022-11-13T06:09:17.376Z,102367.03
2022-11-13T06:11:47.477Z,102374.31
2022-11-13T06:14:17.604Z,102368.84
2022-11-13T06:16:47.866Z,102371.91
2022-11-13T06:19:17.979Z,102363.00
2022-11-13T06:21:48.101Z,102358.28
2022-11-13T06:24:18.142Z,102366.84
2022-11-13T06:26:48.330Z,102353.59
2022-11-13T06:29:16.930Z,102354.19
2022-11-13T06:31:45.194Z,102360.84
2022-11-13T06:34:13.547Z,102353.63
2022-11-13T06:36:41.948Z,102354.16
2022-11-13T06:39:10.742Z,102356.34
2022-11-13T06:41:39.963Z,102360.78
2022-11-13T06:44:07.727Z,102355.53
2022-11-13T06:46:36.014Z,102347.59
2022-11-13T06:49:04.258Z,102349.53
2022-11-13T06:51:32.802Z,102345.69
2022-11-13T06:54:01.508Z,102351.78
2022-11-13T06:56:29.843Z,102342.94
2022-11-13T06:58:57.987Z,102350.09
2022-11-13T07:01:27.364Z,102348.75
2022-11-13T07:03:55.283Z,102351.50
2022-11-13T07:06:25.351Z,102339.91
2022-11-13T07:08:54.731Z,102340.19
2022-11-13T07:11:24.484Z,102340.72
2022-11-13T07:13:54.541Z,102337.97
2022-11-13T07:16:23.084Z,102325.53
2022-11-13T07:18:54.683Z,102331.06
2022-11-13T07:21:23.179Z,102324.16
2022-11-13T07:23:52.879Z,102322.53
2022-11-13T07:26:24.018Z,102322.25
2022-11-13T07:28:53.305Z,102329.16
2022-11-13T07:31:23.345Z,102325.56
2022-11-13T07:33:53.039Z,102326.66
2022-11-13T07:36:23.283Z,102329.41
2022-11-13T07:38:56.640Z,102329.69
2022-11-13T07:41:26.577Z,102329.13
2022-11-13T07:43:56.658Z,102333.31
2022-11-13T07:46:23.821Z,102335.78
2022-11-13T07:48:53.607Z,102332.47
2022-11-13T07:51:23.420Z,102325.84
2022-11-13T07:53:53.333Z,102322.00
2022-11-13T07:56:25.517Z,102324.53
2022-11-13T07:58:55.047Z,102320.59
2022-11-13T08:01:25.670Z,102326.19
2022-11-13T08:03:55.552Z,102320.06
2022-11-13T08:06:27.780Z,102316.16
2022-11-13T08:08:57.535Z,102313.44
2022-11-13T08:11:27.511Z,102322.34
2022-11-13T08:13:57.628Z,102318.16
2022-11-13T08:16:31.327Z,102328.91
2022-11-13T08:19:02.083Z,102318.16
2022-11-13T08:21:31.496Z,102323.97
2022-11-13T08:24:00.967Z,102318.44
2022-11-13T08:26:30.803Z,102309.84
2022-11-13T08:29:01.139Z,102312.91
2022-11-13T08:31:32.078Z,102319.00
2022-11-13T08:34:03.479Z,102317.06
2022-11-13T08:36:33.529Z,102310.97
2022-11-13T08:39:03.737Z,102314.03
2022-11-13T08:41:34.145Z,102317.91
2022-11-13T08:44:04.720Z,102329.81
2022-11-13T08:46:35.019Z,102327.03
2022-11-13T08:49:05.454Z,102325.13
2022-11-13T08:51:35.477Z,102323.16
2022-11-13T08:54:05.641Z,102317.88
2022-11-13T08:56:35.685Z,102320.13
2022-11-13T08:59:06.040Z,102320.94
2022-11-13T09:01:36.212Z,102318.16
2022-11-13T09:04:06.371Z,102317.34
2022-11-13T09:06:36.615Z,102306.81
2022-11-13T09:09:07.822Z,102317.34
2022-11-13T09:11:38.403Z,102314.28
2022-11-13T09:14:08.521Z,102316.22
2022-11-13T09:16:38.651Z,102312.91
2022-11-13T09:19:09.080Z,102311.81
2022-11-13T09:21:39.331Z,102306.00
2022-11-13T09:24:09.499Z,102311.25
2022-11-13T09:26:39.688Z,102296.31
2022-11-13T09:29:08.083Z,102303.19
2022-11-13T09:31:39.631Z,102310.69
2022-11-13T09:34:08.787Z,102310.41
2022-11-13T09:36:37.375Z,102300.97
2022-11-13T09:39:08.179Z,102298.78
2022-11-13T09:41:46.866Z,102292.13
2022-11-13T09:44:41.886Z,102293.25
2022-11-13T09:47:29.160Z,102296.56
2022-11-13T09:50:22.255Z,102302.38
2022-11-13T09:52:55.071Z,102291.28
2022-11-13T09:55:59.435Z,102296.25
2022-11-13T09:59:00.897Z,102291.28
2022-11-13T10:02:41.609Z,102284.03
2022-11-13T10:06:01.365Z,102279.03
2022-11-13T10:09:01.505Z,102273.47
2022-11-13T10:11:47.487Z,102271.47
2022-11-13T10:14:35.852Z,102266.47
2022-11-13T10:17:40.559Z,102272.31
2022-11-13T10:20:47.785Z,102273.97
2022-11-13T10:23:34.643Z,102265.66
2022-11-13T10:26:21.956Z,102268.72
2022-11-13T10:29:13.705Z,102268.97
2022-11-13T10:31:52.377Z,102259.28
2022-11-13T10:34:22.281Z,102259.03
2022-11-13T10:37:27.641Z,102263.44
2022-11-13T10:39:57.702Z,102266.53
2022-11-13T10:42:39.501Z,102254.59
2022-11-13T10:45:23.278Z,102259.22
2022-11-13T10:48:08.706Z,102243.75
2022-11-13T10:50:40.589Z,102247.06
2022-11-13T10:53:19.938Z,102244.31
2022-11-13T10:55:59.286Z,102242.91
2022-11-13T10:58:27.285Z,102235.94
2022-11-13T11:00:55.565Z,102235.91
2022-11-13T11:03:27.275Z,102244.34
2022-11-13T11:06:02.651Z,102233.25
2022-11-13T11:08:36.490Z,102228.34
2022-11-13T11:11:37.500Z,102226.72
2022-11-13T11:14:32.566Z,102229.09
2022-11-13T11:17:07.246Z,102222.09
2022-11-13T11:19:44.902Z,102224.94
2022-11-13T11:22:30.587Z,102219.00
2022-11-13T11:25:30.808Z,102211.19
2022-11-13T11:28:21.076Z,102213.84
2022-11-13T11:31:42.828Z,102200.56
2022-11-13T11:34:45.068Z,102200.44
2022-11-13T11:42:40.688Z,102186.47
2022-11-13T11:45:26.642Z,102190.13
2022-11-13T11:48:00.713Z,102186.63
2022-11-13T11:50:51.877Z,102183.91
2022-11-13T11:54:07.263Z,102180.25
2022-11-13T11:56:55.829Z,102174.72
2022-11-13T12:00:06.665Z,102173.84
2022-11-13T12:03:04.571Z,102169.16
2022-11-13T12:06:31.480Z,102162.56
2022-11-13T12:09:36.445Z,102162.72
2022-11-13T12:12:54.143Z,102152.09
2022-11-13T12:15:52.350Z,102145.78
2022-11-13T12:18:38.375Z,102141.41
2022-11-13T12:21:25.245Z,102143.34
2022-11-13T12:24:18.725Z,102145.59
2022-11-13T12:27:16.458Z,102139.03
2022-11-13T12:30:22.796Z,102143.97
2022-11-13T12:34:01.272Z,102144.22
2022-11-13T12:36:33.547Z,102137.13
2022-11-13T12:39:36.798Z,102132.66
2022-11-13T12:42:34.497Z,102125.94
2022-11-13T12:45:33.800Z,102124.16
2022-11-13T12:48:18.854Z,102118.50
2022-11-13T12:51:22.588Z,102120.34
2022-11-13T12:53:54.502Z,102116.78
2022-11-13T12:56:27.805Z,102111.34
2022-11-13T12:59:31.539Z,102105.84
2022-11-13T13:03:09.249Z,102103.66
2022-11-13T13:06:24.707Z,102101.66
2022-11-13T13:09:18.963Z,102102.13
2022-11-13T13:12:01.246Z,102086.03
2022-11-13T13:15:00.710Z,102083.59
2022-11-13T13:17:28.845Z,102089.69
2022-11-13T13:20:34.498Z,102091.31
2022-11-13T13:23:10.094Z,102086.53
2022-11-13T13:25:41.579Z,102083.97
2022-11-13T13:28:24.897Z,102082.28
2022-11-13T13:31:37.378Z,102081.94
2022-11-13T13:34:54.111Z,102077.50
2022-11-13T13:38:18.153Z,102079.53
2022-11-13T13:41:12.044Z,102085.97
2022-11-13T13:44:32.925Z,102074.94
2022-11-13T13:47:28.762Z,102078.06
2022-11-13T13:50:04.873Z,102084.97
2022-11-13T13:52:38.034Z,102081.94
2022-11-13T13:55:28.174Z,102076.44
2022-11-13T13:58:08.168Z,102071.44
2022-11-13T14:00:53.280Z,102074.13
2022-11-13T14:03:30.050Z,102070.19
2022-11-13T14:06:22.034Z,102070.53
2022-11-13T14:08:52.201Z,102070.19
2022-11-13T14:11:29.802Z,102069.75
2022-11-13T14:14:22.089Z,102069.94
2022-11-13T14:16:54.253Z,102065.50
2022-11-13T14:19:24.998Z,102056.16
2022-11-13T14:22:08.653Z,102057.38
2022-11-13T14:25:26.837Z,102050.03
2022-11-13T14:27:57.191Z,102051.44
2022-11-13T14:30:30.958Z,102062.00
2022-11-13T14:33:08.638Z,102053.69
2022-11-13T14:35:41.169Z,102054.22
2022-11-13T14:38:26.458Z,102055.91
2022-11-13T14:40:58.731Z,102049.91
2022-11-13T14:43:34.406Z,102051.34
2022-11-13T14:46:28.097Z,102044.47
2022-11-13T14:48:57.938Z,102037.28
2022-11-13T14:51:34.563Z,102043.38
2022-11-13T14:54:08.869Z,102043.72
2022-11-13T14:56:43.180Z,102039.00
2022-11-13T14:59:28.420Z,102039.81
2022-11-13T15:01:59.679Z,102037.94
2022-11-13T15:04:30.046Z,102037.38
2022-11-13T15:07:18.361Z,102034.91
2022-11-13T15:09:50.631Z,102033.53
2022-11-13T15:12:22.461Z,102027.44
2022-11-13T15:14:52.764Z,102033.25
2022-11-13T15:17:24.364Z,102028.84
2022-11-13T15:19:55.756Z,102019.44
2022-11-13T15:22:27.612Z,102035.78
2022-11-13T15:24:58.463Z,102027.47
2022-11-13T15:27:29.451Z,102021.13
2022-11-13T15:29:59.632Z,102018.13
2022-11-13T15:32:29.896Z,102027.00
2022-11-13T15:34:59.998Z,102023.41
2022-11-13T15:37:28.439Z,102027.25
2022-11-13T15:39:56.898Z,102017.34
2022-11-13T15:42:35.259Z,102017.59
2022-11-13T15:45:06.581Z,102015.09
2022-11-13T15:47:37.979Z,102015.34
2022-11-13T15:50:13.771Z,102022.50
2022-11-13T15:52:52.546Z,102019.72
2022-11-13T15:55:32.185Z,102013.91
2022-11-13T15:58:02.930Z,102013.84
2022-11-13T16:00:31.084Z,102015.53
2022-11-13T16:03:00.923Z,102013.03
2022-11-13T16:05:30.740Z,102008.59
2022-11-13T16:08:00.642Z,102006.91
2022-11-13T16:10:30.481Z,102001.09
2022-11-13T16:13:00.405Z,102004.09
2022-11-13T16:15:30.161Z,102002.56
2022-11-13T16:18:02.243Z,102006.97
2022-11-13T16:20:31.466Z,102003.94
2022-11-13T16:23:02.461Z,102002.81
2022-11-13T16:25:33.936Z,102011.34
2022-11-13T16:28:02.755Z,102005.78
2022-11-13T16:30:31.538Z,102014.38
2022-11-13T16:33:05.876Z,102019.66
2022-11-13T16:35:36.972Z,102016.88
2022-11-13T16:38:15.458Z,102016.88
2022-11-13T16:40:45.612Z,102013.50
2022-11-13T16:43:14.913Z,102009.97
2022-11-13T16:45:44.900Z,102004.75
2022-11-13T16:48:16.497Z,102007.78
2022-11-13T16:50:46.290Z,101996.44
2022-11-13T16:53:16.115Z,102003.63
2022-11-13T16:55:45.852Z,101997.28
2022-11-13T16:58:15.766Z,101994.78
2022-11-13T17:00:45.855Z,102003.28
2022-11-13T17:03:15.575Z,102003.22
2022-11-13T17:05:45.547Z,102003.81
2022-11-13T17:08:15.380Z,102000.22
2022-11-13T17:10:45.278Z,101996.03
2022-11-13T17:13:15.311Z,101998.19
2022-11-13T17:15:44.999Z,102002.38
2022-11-13T17:18:15.494Z,101992.50
2022-11-13T17:20:45.227Z,101990.75
2022-11-13T17:23:16.230Z,101982.44
2022-11-13T17:25:47.726Z,101985.75
2022-11-13T17:28:16.596Z,101985.16
2022-11-13T17:30:46.735Z,101989.00
2022-11-13T17:33:17.541Z,101990.59
2022-11-13T17:35:55.426Z,101994.44
2022-11-13T17:38:27.229Z,101983.97
2022-11-13T17:40:55.938Z,101996.03
2022-11-13T17:43:25.657Z,101995.56
2022-11-13T17:45:55.486Z,102004.22
2022-11-13T17:48:25.572Z,102000.31
2022-11-13T17:51:03.436Z,102002.44
2022-11-13T17:53:32.499Z,102002.75
2022-11-13T17:56:05.297Z,102006.09
2022-11-13T17:58:44.376Z,102004.13
2022-11-13T18:01:22.059Z,102006.66
2022-11-13T18:03:56.523Z,101994.78
2022-11-13T18:06:26.900Z,102000.00
2022-11-13T18:08:57.048Z,102001.47
2022-11-13T18:11:30.521Z,101999.50
2022-11-13T18:13:58.058Z,101998.97
2022-11-13T18:16:34.038Z,101994.78
2022-11-13T18:19:06.946Z,101984.28
2022-11-13T18:21:38.041Z,101989.47
2022-11-13T18:24:15.360Z,101985.06
2022-11-13T18:26:46.132Z,101987.09
2022-11-13T18:29:16.033Z,101980.63
2022-11-13T18:31:46.208Z,101973.97
2022-11-13T18:34:22.111Z,101975.09
2022-11-13T18:36:51.405Z,101976.06
2022-11-13T18:39:21.676Z,101980.19
2022-11-13T18:41:50.762Z,101977.75
2022-11-13T18:44:21.527Z,101986.38
2022-11-13T18:46:51.559Z,101986.97
2022-11-13T18:49:22.075Z,101993.00
2022-11-13T18:51:49.327Z,101990.59
2022-11-13T18:54:19.756Z,101992.50
2022-11-13T18:56:49.393Z,101987.28
2022-11-13T18:59:19.611Z,101990.63
2022-11-13T19:01:49.108Z,101992.91
2022-11-13T19:04:23.605Z,101986.59
2022-11-13T19:06:53.774Z,101992.38
2022-11-13T19:09:23.939Z,101991.78
2022-11-13T19:11:54.897Z,101986.81
2022-11-13T19:14:24.696Z,101992.13
2022-11-13T19:16:54.502Z,101987.75
2022-11-13T19:19:25.108Z,101984.91
2022-11-13T19:21:54.742Z,101986.09
2022-11-13T19:24:22.605Z,101984.66
2022-11-13T19:26:52.422Z,101982.16
2022-11-13T19:29:25.392Z,101991.19
2022-11-13T19:31:54.891Z,101982.31
2022-11-13T19:34:23.283Z,101976.56
2022-11-13T19:36:53.245Z,101975.09
2022-11-13T19:39:21.067Z,101978.59
2022-11-13T19:41:50.754Z,101969.41
2022-11-13T19:44:20.548Z,101971.88
2022-11-13T19:46:53.784Z,101972.09
2022-11-13T19:49:25.347Z,101967.69
2022-11-13T19:51:56.707Z,101969.53
2022-11-13T19:54:26.827Z,101966.75
2022-11-13T19:56:57.212Z,101960.34
2022-11-13T19:59:27.364Z,101967.69
2022-11-13T20:01:57.481Z,101966.03
2022-11-13T20:04:27.708Z,101964.31
2022-11-13T20:06:57.831Z,101966.97
2022-11-13T20:09:29.728Z,101963.88
2022-11-13T20:11:59.798Z,101962.59
2022-11-13T20:14:33.126Z,101953.75
2022-11-13T20:17:04.360Z,101959.06
2022-11-13T20:19:32.726Z,101960.00
2022-11-13T20:22:01.135Z,101961.16
2022-11-13T20:24:29.625Z,101949.66
2022-11-13T20:27:00.229Z,101948.56
2022-11-13T20:29:32.464Z,101941.88
2022-11-13T20:32:02.764Z,101938.63
2022-11-13T20:34:32.845Z,101945.28
2022-11-13T20:37:03.016Z,101941.63
2022-11-13T20:39:33.188Z,101940.34
2022-11-13T20:42:03.601Z,101938.97
2022-11-13T20:44:34.315Z,101939.13
2022-11-13T20:47:04.616Z,101931.97
2022-11-13T20:49:34.795Z,101932.00
2022-11-13T20:52:07.149Z,101939.13
2022-11-13T20:54:37.330Z,101929.56
2022-11-13T20:57:07.425Z,101928.84
2022-11-13T20:59:37.504Z,101915.94
2022-11-13T21:02:10.061Z,101914.88
2022-11-13T21:04:40.202Z,101907.69
2022-11-13T21:07:10.422Z,101911.78
2022-11-13T21:09:40.566Z,101912.53
2022-11-13T21:12:14.037Z,101914.13
2022-11-13T21:14:46.963Z,101908.34
2022-11-13T21:17:17.128Z,101915.72
2022-11-13T21:19:45.814Z,101914.88
2022-11-13T21:22:14.050Z,101916.06
2022-11-13T21:24:42.496Z,101914.56
2022-11-13T21:27:11.103Z,101920.31
2022-11-13T21:29:39.267Z,101920.84
2022-11-13T21:32:09.881Z,101914.56
2022-11-13T21:34:41.114Z,101912.56
2022-11-13T21:37:12.573Z,101907.88
2022-11-13T21:39:42.711Z,101905.63
2022-11-13T21:42:16.695Z,101905.50
2022-11-13T21:44:47.224Z,101908.25
2022-11-13T21:47:17.350Z,101903.19
2022-11-13T21:49:47.530Z,101903.72
2022-11-13T21:52:18.224Z,101903.16
2022-11-13T21:54:48.298Z,101903.72
2022-11-13T21:57:19.203Z,101913.63
2022-11-13T21:59:49.482Z,101898.31
2022-11-13T22:02:19.742Z,101894.16
2022-11-13T22:04:51.093Z,101885.53
2022-11-13T22:07:21.299Z,101885.59
2022-11-13T22:09:53.944Z,101885.97
2022-11-13T22:12:24.579Z,101885.13
2022-11-13T22:14:54.674Z,101883.41
2022-11-13T22:17:24.860Z,101892.91
2022-11-13T22:19:55.017Z,101883.25
2022-11-13T22:22:25.575Z,101879.31
2022-11-13T22:24:55.810Z,101874.38
2022-11-13T22:27:26.268Z,101874.06
2022-11-13T22:29:56.555Z,101871.88
2022-11-13T22:32:27.715Z,101865.81
2022-11-13T22:34:57.908Z,101860.56
2022-11-13T22:37:27.969Z,101866.06
2022-11-13T22:39:58.078Z,101861.66
2022-11-13T22:42:28.194Z,101854.03
2022-11-13T22:44:58.335Z,101857.31
2022-11-13T22:47:28.429Z,101850.44
2022-11-13T22:50:00.675Z,101846.81
2022-11-13T22:52:30.974Z,101840.13
2022-11-13T22:55:01.202Z,101835.00
2022-11-13T22:57:32.578Z,101841.63
2022-11-13T23:00:11.886Z,101820.69
2022-11-13T23:02:47.073Z,101824.84
2022-11-13T23:05:16.798Z,101819.28
2022-11-13T23:07:45.157Z,101831.75
2022-11-13T23:10:13.817Z,101825.56
2022-11-13T23:12:43.044Z,101829.00
2022-11-13T23:15:10.985Z,101837.81
2022-11-13T23:17:38.975Z,101842.69
2022-11-13T23:20:08.782Z,101831.22
2022-11-13T23:22:38.863Z,101830.16
2022-11-13T23:25:08.376Z,101821.41
2022-11-13T23:27:35.862Z,101820.69
2022-11-13T23:30:05.213Z,101818.13
2022-11-13T23:32:32.813Z,101820.34
2022-11-13T23:35:01.143Z,101820.03
2022-11-13T23:37:29.788Z,101823.63
2022-11-13T23:39:58.286Z,101812.53
2022-11-13T23:42:45.691Z,101811.59
2022-11-13T23:45:16.041Z,101808.84
2022-11-13T23:47:46.380Z,101799.25
2022-11-13T23:50:17.089Z,101801.72
2022-11-13T23:52:49.407Z,101806.19
2022-11-13T23:55:21.517Z,101801.41
2022-11-13T23:58:04.905Z,101805.81
